sensor_id;sensor_type;location;lat;lon;timestamp;temperature;humidity
52965;DHT22;42923;53.220;6.528;2023-06-22T00:00:49;16.00;99.90
52965;DHT22;42923;53.220;6.528;2023-06-22T00:03:17;16.00;99.90
52965;DHT22;42923;53.220;6.528;2023-06-22T00:05:43;16.00;99.90
52965;DHT22;42923;53.220;6.528;2023-06-22T00:08:09;16.00;99.90
52965;DHT22;42923;53.220;6.528;2023-06-22T00:10:34;15.90;99.90
52965;DHT22;42923;53.220;6.528;2023-06-22T00:13:00;15.90;99.90
52965;DHT22;42923;53.220;6.528;2023-06-22T00:15:26;15.90;99.90
52965;DHT22;42923;53.220;6.528;2023-06-22T00:17:52;15.90;99.90
52965;DHT22;42923;53.220;6.528;2023-06-22T00:20:18;15.80;99.90
52965;DHT22;42923;53.220;6.528;2023-06-22T00:22:44;15.80;99.90
52965;DHT22;42923;53.220;6.528;2023-06-22T00:25:11;15.80;99.90
52965;DHT22;42923;53.220;6.528;2023-06-22T00:27:36;15.80;99.90
52965;DHT22;42923;53.220;6.528;2023-06-22T00:30:03;15.80;99.90
52965;DHT22;42923;53.220;6.528;2023-06-22T00:32:28;15.70;99.90
52965;DHT22;42923;53.220;6.528;2023-06-22T00:34:54;15.70;99.90
52965;DHT22;42923;53.220;6.528;2023-06-22T00:37:20;15.70;99.90
52965;DHT22;42923;53.220;6.528;2023-06-22T00:39:52;15.70;99.90
52965;DHT22;42923;53.220;6.528;2023-06-22T00:42:19;15.70;99.90
52965;DHT22;42923;53.220;6.528;2023-06-22T00:44:46;15.70;99.90
52965;DHT22;42923;53.220;6.528;2023-06-22T00:47:15;15.60;99.90
52965;DHT22;42923;53.220;6.528;2023-06-22T00:49:41;15.60;99.90
52965;DHT22;42923;53.220;6.528;2023-06-22T00:52:07;15.60;99.90
52965;DHT22;42923;53.220;6.528;2023-06-22T00:54:36;15.60;99.90
52965;DHT22;42923;53.220;6.528;2023-06-22T00:57:02;15.50;99.90
52965;DHT22;42923;53.220;6.528;2023-06-22T00:59:28;15.50;99.90
52965;DHT22;42923;53.220;6.528;2023-06-22T01:01:54;15.50;99.90
52965;DHT22;42923;53.220;6.528;2023-06-22T01:04:26;15.50;99.90
52965;DHT22;42923;53.220;6.528;2023-06-22T01:07:27;15.60;99.90
52965;DHT22;42923;53.220;6.528;2023-06-22T01:10:05;15.60;99.90
52965;DHT22;42923;53.220;6.528;2023-06-22T01:12:39;15.50;99.90
52965;DHT22;42923;53.220;6.528;2023-06-22T01:15:11;15.50;99.90
52965;DHT22;42923;53.220;6.528;2023-06-22T01:17:41;15.50;99.90
52965;DHT22;42923;53.220;6.528;2023-06-22T01:20:10;15.50;99.90
52965;DHT22;42923;53.220;6.528;2023-06-22T01:28:55;15.70;99.90
52965;DHT22;42923;53.220;6.528;2023-06-22T01:31:26;15.60;99.90
52965;DHT22;42923;53.220;6.528;2023-06-22T01:34:02;15.60;99.90
52965;DHT22;42923;53.220;6.528;2023-06-22T01:36:30;15.60;99.90
52965;DHT22;42923;53.220;6.528;2023-06-22T01:38:57;15.60;99.90
52965;DHT22;42923;53.220;6.528;2023-06-22T01:41:26;15.60;99.90
52965;DHT22;42923;53.220;6.528;2023-06-22T01:43:53;15.50;99.90
52965;DHT22;42923;53.220;6.528;2023-06-22T01:46:21;15.50;99.90
52965;DHT22;42923;53.220;6.528;2023-06-22T01:48:47;15.50;99.90
52965;DHT22;42923;53.220;6.528;2023-06-22T01:51:13;15.50;99.90
52965;DHT22;42923;53.220;6.528;2023-06-22T01:53:39;15.50;99.90
52965;DHT22;42923;53.220;6.528;2023-06-22T01:56:05;15.50;99.90
52965;DHT22;42923;53.220;6.528;2023-06-22T01:58:33;15.50;99.90
52965;DHT22;42923;53.220;6.528;2023-06-22T02:01:27;15.50;99.90
52965;DHT22;42923;53.220;6.528;2023-06-22T02:04:06;15.50;99.90
52965;DHT22;42923;53.220;6.528;2023-06-22T02:06:37;15.50;99.90
52965;DHT22;42923;53.220;6.528;2023-06-22T02:09:16;15.50;99.90
52965;DHT22;42923;53.220;6.528;2023-06-22T02:11:45;15.40;99.90
52965;DHT22;42923;53.220;6.528;2023-06-22T02:14:13;15.40;99.90
52965;DHT22;42923;53.220;6.528;2023-06-22T02:16:39;15.40;99.90
52965;DHT22;42923;53.220;6.528;2023-06-22T02:19:06;15.40;99.90
52965;DHT22;42923;53.220;6.528;2023-06-22T02:21:34;15.40;99.90
52965;DHT22;42923;53.220;6.528;2023-06-22T02:24:00;15.40;99.90
52965;DHT22;42923;53.220;6.528;2023-06-22T02:26:29;15.30;99.90
52965;DHT22;42923;53.220;6.528;2023-06-22T02:28:55;15.30;99.90
52965;DHT22;42923;53.220;6.528;2023-06-22T02:31:21;15.30;99.90
52965;DHT22;42923;53.220;6.528;2023-06-22T02:33:47;15.30;99.90
52965;DHT22;42923;53.220;6.528;2023-06-22T02:36:13;15.30;99.90
52965;DHT22;42923;53.220;6.528;2023-06-22T02:38:43;15.30;99.90
52965;DHT22;42923;53.220;6.528;2023-06-22T02:41:14;15.30;99.90
52965;DHT22;42923;53.220;6.528;2023-06-22T02:43:44;15.30;99.90
52965;DHT22;42923;53.220;6.528;2023-06-22T02:46:11;15.30;99.90
52965;DHT22;42923;53.220;6.528;2023-06-22T02:48:39;15.30;99.90
52965;DHT22;42923;53.220;6.528;2023-06-22T02:51:06;15.30;99.90
52965;DHT22;42923;53.220;6.528;2023-06-22T02:53:33;15.20;99.90
52965;DHT22;42923;53.220;6.528;2023-06-22T02:55:58;15.20;99.90
52965;DHT22;42923;53.220;6.528;2023-06-22T02:58:28;15.20;99.90
52965;DHT22;42923;53.220;6.528;2023-06-22T03:00:54;15.20;99.90
52965;DHT22;42923;53.220;6.528;2023-06-22T03:03:19;15.10;99.90
52965;DHT22;42923;53.220;6.528;2023-06-22T03:05:45;15.10;99.90
52965;DHT22;42923;53.220;6.528;2023-06-22T03:08:11;15.10;99.90
52965;DHT22;42923;53.220;6.528;2023-06-22T03:10:37;15.10;99.90
52965;DHT22;42923;53.220;6.528;2023-06-22T03:13:03;15.10;99.90
52965;DHT22;42923;53.220;6.528;2023-06-22T03:15:30;15.10;99.90
52965;DHT22;42923;53.220;6.528;2023-06-22T03:17:57;15.10;99.90
52965;DHT22;42923;53.220;6.528;2023-06-22T03:20:23;15.00;99.90
52965;DHT22;42923;53.220;6.528;2023-06-22T03:22:49;15.00;99.90
52965;DHT22;42923;53.220;6.528;2023-06-22T03:25:14;15.00;99.90
52965;DHT22;42923;53.220;6.528;2023-06-22T03:27:43;15.00;99.90
52965;DHT22;42923;53.220;6.528;2023-06-22T03:30:11;15.20;99.90
52965;DHT22;42923;53.220;6.528;2023-06-22T03:32:37;15.20;99.90
52965;DHT22;42923;53.220;6.528;2023-06-22T03:35:05;15.30;99.90
52965;DHT22;42923;53.220;6.528;2023-06-22T03:37:33;15.30;99.90
52965;DHT22;42923;53.220;6.528;2023-06-22T03:39:59;15.30;99.90
52965;DHT22;42923;53.220;6.528;2023-06-22T03:42:25;15.30;99.90
52965;DHT22;42923;53.220;6.528;2023-06-22T03:44:51;15.40;99.90
52965;DHT22;42923;53.220;6.528;2023-06-22T03:47:17;15.40;99.90
52965;DHT22;42923;53.220;6.528;2023-06-22T03:49:43;15.30;99.90
52965;DHT22;42923;53.220;6.528;2023-06-22T03:52:09;15.30;99.90
52965;DHT22;42923;53.220;6.528;2023-06-22T03:54:36;15.40;99.90
52965;DHT22;42923;53.220;6.528;2023-06-22T03:57:02;15.40;99.90
52965;DHT22;42923;53.220;6.528;2023-06-22T03:59:28;15.40;99.90
52965;DHT22;42923;53.220;6.528;2023-06-22T04:01:53;15.40;99.90
52965;DHT22;42923;53.220;6.528;2023-06-22T04:04:20;15.40;99.90
52965;DHT22;42923;53.220;6.528;2023-06-22T04:06:46;15.50;99.90
52965;DHT22;42923;53.220;6.528;2023-06-22T04:09:12;15.50;99.90
52965;DHT22;42923;53.220;6.528;2023-06-22T04:11:37;15.50;99.90
52965;DHT22;42923;53.220;6.528;2023-06-22T04:14:03;15.60;99.90
52965;DHT22;42923;53.220;6.528;2023-06-22T04:16:29;15.60;99.90
52965;DHT22;42923;53.220;6.528;2023-06-22T04:18:54;15.60;99.90
52965;DHT22;42923;53.220;6.528;2023-06-22T04:21:20;15.70;99.90
52965;DHT22;42923;53.220;6.528;2023-06-22T04:23:46;15.70;99.90
52965;DHT22;42923;53.220;6.528;2023-06-22T04:26:13;15.80;99.90
52965;DHT22;42923;53.220;6.528;2023-06-22T04:28:40;15.80;99.90
52965;DHT22;42923;53.220;6.528;2023-06-22T04:31:06;15.80;99.90
52965;DHT22;42923;53.220;6.528;2023-06-22T04:33:32;15.90;99.90
52965;DHT22;42923;53.220;6.528;2023-06-22T04:35:58;16.00;99.90
52965;DHT22;42923;53.220;6.528;2023-06-22T04:38:26;15.90;99.90
52965;DHT22;42923;53.220;6.528;2023-06-22T04:40:52;16.00;99.90
52965;DHT22;42923;53.220;6.528;2023-06-22T04:43:19;16.00;99.90
52965;DHT22;42923;53.220;6.528;2023-06-22T04:45:45;16.10;99.90
52965;DHT22;42923;53.220;6.528;2023-06-22T04:48:11;16.20;99.90
52965;DHT22;42923;53.220;6.528;2023-06-22T04:50:42;16.20;99.90
52965;DHT22;42923;53.220;6.528;2023-06-22T04:53:08;16.40;99.90
52965;DHT22;42923;53.220;6.528;2023-06-22T04:55:35;16.40;99.90
52965;DHT22;42923;53.220;6.528;2023-06-22T04:58:03;16.30;99.90
52965;DHT22;42923;53.220;6.528;2023-06-22T05:00:30;16.40;99.90
52965;DHT22;42923;53.220;6.528;2023-06-22T05:02:57;16.50;99.90
52965;DHT22;42923;53.220;6.528;2023-06-22T05:05:24;16.60;99.90
52965;DHT22;42923;53.220;6.528;2023-06-22T05:07:51;16.70;99.90
52965;DHT22;42923;53.220;6.528;2023-06-22T05:10:21;16.70;99.90
52965;DHT22;42923;53.220;6.528;2023-06-22T05:12:47;16.80;99.90
52965;DHT22;42923;53.220;6.528;2023-06-22T05:15:12;16.80;99.90
52965;DHT22;42923;53.220;6.528;2023-06-22T05:17:38;16.80;99.90
52965;DHT22;42923;53.220;6.528;2023-06-22T05:20:11;16.90;99.90
52965;DHT22;42923;53.220;6.528;2023-06-22T05:22:38;17.00;99.90
52965;DHT22;42923;53.220;6.528;2023-06-22T05:25:08;17.10;99.90
52965;DHT22;42923;53.220;6.528;2023-06-22T05:27:35;17.20;99.90
52965;DHT22;42923;53.220;6.528;2023-06-22T05:30:08;17.20;99.90
52965;DHT22;42923;53.220;6.528;2023-06-22T05:32:35;17.30;99.90
52965;DHT22;42923;53.220;6.528;2023-06-22T05:35:02;17.40;99.90
52965;DHT22;42923;53.220;6.528;2023-06-22T05:37:28;17.50;99.90
52965;DHT22;42923;53.220;6.528;2023-06-22T05:39:54;17.60;99.90
52965;DHT22;42923;53.220;6.528;2023-06-22T05:42:21;17.60;99.90
52965;DHT22;42923;53.220;6.528;2023-06-22T05:44:47;17.80;99.90
52965;DHT22;42923;53.220;6.528;2023-06-22T05:47:13;17.80;99.90
52965;DHT22;42923;53.220;6.528;2023-06-22T05:49:39;18.00;99.90
52965;DHT22;42923;53.220;6.528;2023-06-22T05:52:05;18.00;99.90
52965;DHT22;42923;53.220;6.528;2023-06-22T05:54:31;18.10;99.90
52965;DHT22;42923;53.220;6.528;2023-06-22T05:56:56;18.20;99.90
52965;DHT22;42923;53.220;6.528;2023-06-22T05:59:22;18.30;99.90
52965;DHT22;42923;53.220;6.528;2023-06-22T06:01:48;18.40;99.90
52965;DHT22;42923;53.220;6.528;2023-06-22T06:04:17;18.50;99.90
52965;DHT22;42923;53.220;6.528;2023-06-22T06:06:43;18.60;99.90
52965;DHT22;42923;53.220;6.528;2023-06-22T06:09:09;18.60;99.90
52965;DHT22;42923;53.220;6.528;2023-06-22T06:11:34;18.70;99.90
52965;DHT22;42923;53.220;6.528;2023-06-22T06:14:00;18.80;99.90
52965;DHT22;42923;53.220;6.528;2023-06-22T06:16:26;18.90;99.90
52965;DHT22;42923;53.220;6.528;2023-06-22T06:18:52;19.00;99.90
52965;DHT22;42923;53.220;6.528;2023-06-22T06:21:20;19.10;99.90
52965;DHT22;42923;53.220;6.528;2023-06-22T06:23:45;19.20;99.90
52965;DHT22;42923;53.220;6.528;2023-06-22T06:26:12;19.40;99.90
52965;DHT22;42923;53.220;6.528;2023-06-22T06:28:38;19.50;99.90
52965;DHT22;42923;53.220;6.528;2023-06-22T06:31:04;19.70;99.90
52965;DHT22;42923;53.220;6.528;2023-06-22T06:33:32;19.90;99.90
52965;DHT22;42923;53.220;6.528;2023-06-22T06:35:58;20.10;99.90
52965;DHT22;42923;53.220;6.528;2023-06-22T06:38:27;20.20;99.90
52965;DHT22;42923;53.220;6.528;2023-06-22T06:40:53;20.30;99.90
52965;DHT22;42923;53.220;6.528;2023-06-22T06:43:18;20.40;99.90
52965;DHT22;42923;53.220;6.528;2023-06-22T06:45:44;20.60;99.90
52965;DHT22;42923;53.220;6.528;2023-06-22T06:48:10;20.80;99.90
52965;DHT22;42923;53.220;6.528;2023-06-22T06:50:36;20.90;99.90
52965;DHT22;42923;53.220;6.528;2023-06-22T06:53:01;21.10;99.90
52965;DHT22;42923;53.220;6.528;2023-06-22T06:55:27;21.20;99.90
52965;DHT22;42923;53.220;6.528;2023-06-22T06:57:54;21.30;99.90
52965;DHT22;42923;53.220;6.528;2023-06-22T07:00:20;21.40;99.90
52965;DHT22;42923;53.220;6.528;2023-06-22T07:02:46;21.50;99.90
52965;DHT22;42923;53.220;6.528;2023-06-22T07:05:13;21.50;99.90
52965;DHT22;42923;53.220;6.528;2023-06-22T07:07:40;21.70;99.90
52965;DHT22;42923;53.220;6.528;2023-06-22T07:10:07;21.70;99.90
52965;DHT22;42923;53.220;6.528;2023-06-22T07:12:33;21.80;99.90
52965;DHT22;42923;53.220;6.528;2023-06-22T07:15:07;21.90;99.90
52965;DHT22;42923;53.220;6.528;2023-06-22T07:17:34;22.00;99.90
52965;DHT22;42923;53.220;6.528;2023-06-22T07:20:01;22.10;99.90
52965;DHT22;42923;53.220;6.528;2023-06-22T07:22:26;22.30;99.90
52965;DHT22;42923;53.220;6.528;2023-06-22T07:24:52;22.50;99.90
52965;DHT22;42923;53.220;6.528;2023-06-22T07:27:18;22.60;99.90
52965;DHT22;42923;53.220;6.528;2023-06-22T07:29:45;22.60;99.90
52965;DHT22;42923;53.220;6.528;2023-06-22T07:32:11;22.70;99.90
52965;DHT22;42923;53.220;6.528;2023-06-22T07:34:37;22.70;99.90
52965;DHT22;42923;53.220;6.528;2023-06-22T07:37:03;22.80;99.90
52965;DHT22;42923;53.220;6.528;2023-06-22T07:39:30;22.80;99.90
52965;DHT22;42923;53.220;6.528;2023-06-22T07:41:56;23.00;99.90
52965;DHT22;42923;53.220;6.528;2023-06-22T07:44:21;23.00;99.90
52965;DHT22;42923;53.220;6.528;2023-06-22T07:46:47;23.10;99.90
52965;DHT22;42923;53.220;6.528;2023-06-22T07:49:13;23.10;99.90
52965;DHT22;42923;53.220;6.528;2023-06-22T07:51:39;23.20;99.90
52965;DHT22;42923;53.220;6.528;2023-06-22T07:54:04;23.20;99.90
52965;DHT22;42923;53.220;6.528;2023-06-22T07:56:30;23.30;99.90
52965;DHT22;42923;53.220;6.528;2023-06-22T07:58:56;23.40;99.90
52965;DHT22;42923;53.220;6.528;2023-06-22T08:01:24;23.50;99.90
52965;DHT22;42923;53.220;6.528;2023-06-22T08:03:50;23.50;99.90
52965;DHT22;42923;53.220;6.528;2023-06-22T08:06:16;23.70;99.90
52965;DHT22;42923;53.220;6.528;2023-06-22T08:08:42;23.80;99.90
52965;DHT22;42923;53.220;6.528;2023-06-22T08:11:08;23.90;99.90
52965;DHT22;42923;53.220;6.528;2023-06-22T08:13:34;24.00;99.90
52965;DHT22;42923;53.220;6.528;2023-06-22T08:16:00;24.20;99.90
52965;DHT22;42923;53.220;6.528;2023-06-22T08:18:26;24.30;99.90
52965;DHT22;42923;53.220;6.528;2023-06-22T08:20:52;24.40;99.90
52965;DHT22;42923;53.220;6.528;2023-06-22T08:23:18;24.50;99.90
52965;DHT22;42923;53.220;6.528;2023-06-22T08:25:44;24.50;99.90
52965;DHT22;42923;53.220;6.528;2023-06-22T08:28:10;24.40;99.90
52965;DHT22;42923;53.220;6.528;2023-06-22T08:30:35;24.30;99.90
52965;DHT22;42923;53.220;6.528;2023-06-22T08:33:01;24.20;99.90
52965;DHT22;42923;53.220;6.528;2023-06-22T08:35:27;24.20;99.90
52965;DHT22;42923;53.220;6.528;2023-06-22T08:37:53;24.20;99.90
52965;DHT22;42923;53.220;6.528;2023-06-22T08:40:21;24.20;99.90
52965;DHT22;42923;53.220;6.528;2023-06-22T08:42:48;24.30;99.90
52965;DHT22;42923;53.220;6.528;2023-06-22T08:45:14;24.40;99.90
52965;DHT22;42923;53.220;6.528;2023-06-22T08:47:40;24.40;99.90
52965;DHT22;42923;53.220;6.528;2023-06-22T08:50:10;24.40;99.90
52965;DHT22;42923;53.220;6.528;2023-06-22T08:52:37;24.60;99.90
52965;DHT22;42923;53.220;6.528;2023-06-22T08:55:04;24.80;99.90
52965;DHT22;42923;53.220;6.528;2023-06-22T08:57:30;24.90;99.90
52965;DHT22;42923;53.220;6.528;2023-06-22T08:59:56;24.90;99.90
52965;DHT22;42923;53.220;6.528;2023-06-22T09:02:27;24.90;99.90
52965;DHT22;42923;53.220;6.528;2023-06-22T09:04:57;25.00;99.90
52965;DHT22;42923;53.220;6.528;2023-06-22T09:07:24;25.10;99.90
52965;DHT22;42923;53.220;6.528;2023-06-22T09:09:51;25.10;99.90
52965;DHT22;42923;53.220;6.528;2023-06-22T09:12:17;25.10;99.90
52965;DHT22;42923;53.220;6.528;2023-06-22T09:14:46;25.10;99.90
52965;DHT22;42923;53.220;6.528;2023-06-22T09:17:13;25.10;99.90
52965;DHT22;42923;53.220;6.528;2023-06-22T09:19:38;25.20;99.90
52965;DHT22;42923;53.220;6.528;2023-06-22T09:22:05;25.30;99.90
52965;DHT22;42923;53.220;6.528;2023-06-22T09:24:32;25.50;99.90
52965;DHT22;42923;53.220;6.528;2023-06-22T09:26:58;25.50;99.90
52965;DHT22;42923;53.220;6.528;2023-06-22T09:29:24;25.60;99.90
52965;DHT22;42923;53.220;6.528;2023-06-22T09:31:50;25.90;99.90
52965;DHT22;42923;53.220;6.528;2023-06-22T09:34:16;26.10;99.90
52965;DHT22;42923;53.220;6.528;2023-06-22T09:36:46;26.30;99.90
52965;DHT22;42923;53.220;6.528;2023-06-22T09:39:12;26.50;99.90
52965;DHT22;42923;53.220;6.528;2023-06-22T09:41:37;26.70;99.90
52965;DHT22;42923;53.220;6.528;2023-06-22T09:44:03;26.60;99.90
52965;DHT22;42923;53.220;6.528;2023-06-22T09:46:29;26.70;99.90
52965;DHT22;42923;53.220;6.528;2023-06-22T09:48:55;26.80;99.90
52965;DHT22;42923;53.220;6.528;2023-06-22T09:51:21;27.00;99.90
52965;DHT22;42923;53.220;6.528;2023-06-22T09:53:49;27.20;99.90
52965;DHT22;42923;53.220;6.528;2023-06-22T09:56:15;27.30;99.90
52965;DHT22;42923;53.220;6.528;2023-06-22T09:58:45;27.50;99.90
52965;DHT22;42923;53.220;6.528;2023-06-22T10:01:12;27.50;99.90
52965;DHT22;42923;53.220;6.528;2023-06-22T10:03:41;27.40;99.90
52965;DHT22;42923;53.220;6.528;2023-06-22T10:06:07;27.30;99.90
52965;DHT22;42923;53.220;6.528;2023-06-22T10:08:34;27.20;99.90
52965;DHT22;42923;53.220;6.528;2023-06-22T10:11:00;26.90;99.90
52965;DHT22;42923;53.220;6.528;2023-06-22T10:13:26;26.70;99.90
52965;DHT22;42923;53.220;6.528;2023-06-22T10:15:52;26.60;99.90
52965;DHT22;42923;53.220;6.528;2023-06-22T10:18:18;26.60;99.90
52965;DHT22;42923;53.220;6.528;2023-06-22T10:20:49;26.60;99.90
52965;DHT22;42923;53.220;6.528;2023-06-22T10:23:18;26.80;99.90
52965;DHT22;42923;53.220;6.528;2023-06-22T10:25:44;27.10;99.90
52965;DHT22;42923;53.220;6.528;2023-06-22T10:28:10;27.40;99.90
52965;DHT22;42923;53.220;6.528;2023-06-22T10:30:36;27.70;99.90
52965;DHT22;42923;53.220;6.528;2023-06-22T10:33:02;27.80;99.90
52965;DHT22;42923;53.220;6.528;2023-06-22T10:35:28;27.80;99.90
52965;DHT22;42923;53.220;6.528;2023-06-22T10:37:55;28.00;99.90
52965;DHT22;42923;53.220;6.528;2023-06-22T10:40:21;28.20;99.90
52965;DHT22;42923;53.220;6.528;2023-06-22T10:42:47;28.30;99.90
52965;DHT22;42923;53.220;6.528;2023-06-22T10:45:13;28.40;99.90
52965;DHT22;42923;53.220;6.528;2023-06-22T10:47:39;28.50;99.90
52965;DHT22;42923;53.220;6.528;2023-06-22T10:50:07;28.50;99.90
52965;DHT22;42923;53.220;6.528;2023-06-22T10:52:33;28.50;99.90
52965;DHT22;42923;53.220;6.528;2023-06-22T10:54:59;28.60;99.90
52965;DHT22;42923;53.220;6.528;2023-06-22T10:57:25;28.80;99.90
52965;DHT22;42923;53.220;6.528;2023-06-22T10:59:51;29.00;99.90
52965;DHT22;42923;53.220;6.528;2023-06-22T11:02:16;29.10;99.20
52965;DHT22;42923;53.220;6.528;2023-06-22T11:04:42;29.00;98.10
52965;DHT22;42923;53.220;6.528;2023-06-22T11:07:09;28.80;97.60
52965;DHT22;42923;53.220;6.528;2023-06-22T11:09:35;29.10;99.90
52965;DHT22;42923;53.220;6.528;2023-06-22T11:12:00;29.30;99.90
52965;DHT22;42923;53.220;6.528;2023-06-22T11:14:26;29.60;98.30
52965;DHT22;42923;53.220;6.528;2023-06-22T11:16:52;29.70;96.50
52965;DHT22;42923;53.220;6.528;2023-06-22T11:19:18;29.80;95.70
52965;DHT22;42923;53.220;6.528;2023-06-22T11:21:44;29.70;94.00
52965;DHT22;42923;53.220;6.528;2023-06-22T11:24:10;29.70;94.20
52965;DHT22;42923;53.220;6.528;2023-06-22T11:26:36;29.80;93.70
52965;DHT22;42923;53.220;6.528;2023-06-22T11:29:02;30.10;93.20
52965;DHT22;42923;53.220;6.528;2023-06-22T11:31:31;30.10;91.70
52965;DHT22;42923;53.220;6.528;2023-06-22T11:33:58;29.90;91.40
52965;DHT22;42923;53.220;6.528;2023-06-22T11:36:23;29.70;89.80
52965;DHT22;42923;53.220;6.528;2023-06-22T11:38:50;29.30;89.20
52965;DHT22;42923;53.220;6.528;2023-06-22T11:41:17;29.10;90.40
52965;DHT22;42923;53.220;6.528;2023-06-22T11:43:42;28.90;90.70
52965;DHT22;42923;53.220;6.528;2023-06-22T11:46:08;28.80;90.20
52965;DHT22;42923;53.220;6.528;2023-06-22T11:48:34;28.50;92.20
52965;DHT22;42923;53.220;6.528;2023-06-22T11:51:00;28.50;92.40
52965;DHT22;42923;53.220;6.528;2023-06-22T11:53:28;28.50;91.70
52965;DHT22;42923;53.220;6.528;2023-06-22T11:55:54;28.30;91.80
52965;DHT22;42923;53.220;6.528;2023-06-22T11:58:21;28.20;92.10
52965;DHT22;42923;53.220;6.528;2023-06-22T12:00:47;28.20;92.60
52965;DHT22;42923;53.220;6.528;2023-06-22T12:03:13;28.20;93.00
52965;DHT22;42923;53.220;6.528;2023-06-22T12:05:40;28.10;92.80
52965;DHT22;42923;53.220;6.528;2023-06-22T12:08:06;28.00;93.90
52965;DHT22;42923;53.220;6.528;2023-06-22T12:10:32;28.00;93.90
52965;DHT22;42923;53.220;6.528;2023-06-22T12:12:58;27.90;92.90
52965;DHT22;42923;53.220;6.528;2023-06-22T12:15:26;27.80;93.30
52965;DHT22;42923;53.220;6.528;2023-06-22T12:17:52;27.60;93.80
52965;DHT22;42923;53.220;6.528;2023-06-22T12:20:17;27.50;93.60
52965;DHT22;42923;53.220;6.528;2023-06-22T12:22:44;27.40;94.10
52965;DHT22;42923;53.220;6.528;2023-06-22T12:25:10;27.40;94.40
52965;DHT22;42923;53.220;6.528;2023-06-22T12:27:36;27.40;94.70
52965;DHT22;42923;53.220;6.528;2023-06-22T12:30:03;27.40;94.40
52965;DHT22;42923;53.220;6.528;2023-06-22T12:32:29;27.40;94.20
52965;DHT22;42923;53.220;6.528;2023-06-22T12:34:55;27.30;94.50
52965;DHT22;42923;53.220;6.528;2023-06-22T12:37:21;27.10;94.70
52965;DHT22;42923;53.220;6.528;2023-06-22T12:39:46;26.90;94.90
52965;DHT22;42923;53.220;6.528;2023-06-22T12:42:12;26.80;96.20
52965;DHT22;42923;53.220;6.528;2023-06-22T12:44:38;26.80;96.30
52965;DHT22;42923;53.220;6.528;2023-06-22T12:47:07;26.70;96.80
52965;DHT22;42923;53.220;6.528;2023-06-22T12:49:37;26.60;97.70
52965;DHT22;42923;53.220;6.528;2023-06-22T12:52:03;26.60;97.80
52965;DHT22;42923;53.220;6.528;2023-06-22T12:54:29;26.60;98.60
52965;DHT22;42923;53.220;6.528;2023-06-22T12:56:55;26.60;99.00
52965;DHT22;42923;53.220;6.528;2023-06-22T12:59:21;26.60;98.60
52965;DHT22;42923;53.220;6.528;2023-06-22T13:01:47;26.50;99.20
52965;DHT22;42923;53.220;6.528;2023-06-22T13:04:13;26.50;99.10
52965;DHT22;42923;53.220;6.528;2023-06-22T13:06:44;26.40;99.30
52965;DHT22;42923;53.220;6.528;2023-06-22T13:09:17;26.30;99.70
52965;DHT22;42923;53.220;6.528;2023-06-22T13:11:43;26.20;99.50
52965;DHT22;42923;53.220;6.528;2023-06-22T13:14:09;26.10;99.30
52965;DHT22;42923;53.220;6.528;2023-06-22T13:16:35;25.90;98.60
52965;DHT22;42923;53.220;6.528;2023-06-22T13:19:00;25.70;99.10
52965;DHT22;42923;53.220;6.528;2023-06-22T13:21:26;25.60;99.90
52965;DHT22;42923;53.220;6.528;2023-06-22T13:23:52;25.50;99.90
52965;DHT22;42923;53.220;6.528;2023-06-22T13:26:18;25.50;99.90
52965;DHT22;42923;53.220;6.528;2023-06-22T13:28:43;25.60;99.90
52965;DHT22;42923;53.220;6.528;2023-06-22T13:31:09;25.70;99.90
52965;DHT22;42923;53.220;6.528;2023-06-22T13:33:35;25.90;99.90
52965;DHT22;42923;53.220;6.528;2023-06-22T13:36:01;25.90;99.90
52965;DHT22;42923;53.220;6.528;2023-06-22T13:38:29;25.90;99.90
52965;DHT22;42923;53.220;6.528;2023-06-22T13:40:56;25.80;99.50
52965;DHT22;42923;53.220;6.528;2023-06-22T13:43:24;25.70;99.90
52965;DHT22;42923;53.220;6.528;2023-06-22T13:45:49;25.80;99.90
52965;DHT22;42923;53.220;6.528;2023-06-22T13:48:15;25.70;99.20
52965;DHT22;42923;53.220;6.528;2023-06-22T13:50:41;25.70;99.50
52965;DHT22;42923;53.220;6.528;2023-06-22T13:53:06;25.70;98.90
52965;DHT22;42923;53.220;6.528;2023-06-22T13:55:32;25.60;98.40
52965;DHT22;42923;53.220;6.528;2023-06-22T13:57:58;25.50;98.80
52965;DHT22;42923;53.220;6.528;2023-06-22T14:00:24;25.40;98.70
52965;DHT22;42923;53.220;6.528;2023-06-22T14:02:49;25.30;98.60
52965;DHT22;42923;53.220;6.528;2023-06-22T14:05:16;25.10;98.90
52965;DHT22;42923;53.220;6.528;2023-06-22T14:07:41;25.10;99.70
52965;DHT22;42923;53.220;6.528;2023-06-22T14:10:07;25.10;99.90
52965;DHT22;42923;53.220;6.528;2023-06-22T14:12:33;25.00;99.90
52965;DHT22;42923;53.220;6.528;2023-06-22T14:14:59;24.90;99.90
52965;DHT22;42923;53.220;6.528;2023-06-22T14:17:25;24.90;99.90
52965;DHT22;42923;53.220;6.528;2023-06-22T14:19:52;24.80;99.90
52965;DHT22;42923;53.220;6.528;2023-06-22T14:22:21;24.70;99.90
52965;DHT22;42923;53.220;6.528;2023-06-22T14:24:48;24.50;99.90
52965;DHT22;42923;53.220;6.528;2023-06-22T14:27:14;24.40;99.90
52965;DHT22;42923;53.220;6.528;2023-06-22T14:29:40;24.20;99.90
52965;DHT22;42923;53.220;6.528;2023-06-22T14:32:06;24.10;99.90
52965;DHT22;42923;53.220;6.528;2023-06-22T14:34:33;23.90;99.90
52965;DHT22;42923;53.220;6.528;2023-06-22T14:37:02;23.80;99.90
52965;DHT22;42923;53.220;6.528;2023-06-22T14:39:28;23.70;99.90
52965;DHT22;42923;53.220;6.528;2023-06-22T14:41:53;23.70;99.90
52965;DHT22;42923;53.220;6.528;2023-06-22T14:44:19;23.60;99.90
52965;DHT22;42923;53.220;6.528;2023-06-22T14:46:45;23.60;99.90
52965;DHT22;42923;53.220;6.528;2023-06-22T14:49:11;23.50;99.90
52965;DHT22;42923;53.220;6.528;2023-06-22T14:51:36;23.40;99.90
52965;DHT22;42923;53.220;6.528;2023-06-22T14:54:02;23.40;99.90
52965;DHT22;42923;53.220;6.528;2023-06-22T14:56:28;23.40;99.90
52965;DHT22;42923;53.220;6.528;2023-06-22T14:58:55;23.30;99.90
52965;DHT22;42923;53.220;6.528;2023-06-22T15:01:21;23.30;99.90
52965;DHT22;42923;53.220;6.528;2023-06-22T15:03:47;23.40;99.90
52965;DHT22;42923;53.220;6.528;2023-06-22T15:06:12;23.40;99.90
52965;DHT22;42923;53.220;6.528;2023-06-22T15:08:39;23.40;99.90
52965;DHT22;42923;53.220;6.528;2023-06-22T15:11:05;23.40;99.90
52965;DHT22;42923;53.220;6.528;2023-06-22T15:13:32;23.40;99.90
52965;DHT22;42923;53.220;6.528;2023-06-22T15:16:02;23.50;99.90
52965;DHT22;42923;53.220;6.528;2023-06-22T15:18:31;23.50;99.90
52965;DHT22;42923;53.220;6.528;2023-06-22T15:20:59;23.50;99.90
52965;DHT22;42923;53.220;6.528;2023-06-22T15:23:27;23.40;99.90
52965;DHT22;42923;53.220;6.528;2023-06-22T15:25:55;23.30;99.90
52965;DHT22;42923;53.220;6.528;2023-06-22T15:28:21;23.20;99.90
52965;DHT22;42923;53.220;6.528;2023-06-22T15:30:47;23.10;99.90
52965;DHT22;42923;53.220;6.528;2023-06-22T15:33:14;23.00;99.90